Time;durP1;ratioP1;P1;durP2;ratioP2;P2;SDS_P1;SDS_P2;PMS_P1;PMS_P2;Temp;Humidity;BMP_temperature;BMP_pressure;BME280_temperature;BME280_humidity;BME280_pressure;Samples;Min_cycle;Max_cycle;Signal;HPM_P1;HPM_P2
2021/03/24 00:00:34;;;;;;;1.67;0.20;;;29.00;59.50;;;;;;5040758;28;20189;-70
2021/03/24 00:03:02;;;;;;;0.77;0.50;;;29.00;59.60;;;;;;5055026;28;20025;-70
2021/03/24 00:05:32;;;;;;;0.40;0.10;;;29.50;60.20;;;;;;5047665;28;20059;-70
2021/03/24 00:08:00;;;;;;;0.20;0.10;;;30.20;55.00;;;;;;5054959;28;20028;-69
2021/03/24 00:10:28;;;;;;;1.08;0.10;;;30.40;54.30;;;;;;5052524;28;20163;-70
2021/03/24 00:12:58;;;;;;;0.10;0.10;;;30.40;50.10;;;;;;5053845;28;20024;-70
2021/03/24 00:15:27;;;;;;;0.43;0.10;;;30.50;49.60;;;;;;5051775;28;20199;-71
2021/03/24 00:17:55;;;;;;;0.65;0.10;;;29.90;49.30;;;;;;5056433;28;20747;-71
2021/03/24 00:20:27;;;;;;;0.03;0.00;;;29.70;50.90;;;;;;5054942;28;20520;-70
2021/03/24 00:22:55;;;;;;;0.10;0.10;;;30.10;50.00;;;;;;5052115;28;20136;-72
2021/03/24 00:25:22;;;;;;;0.20;0.03;;;30.20;47.80;;;;;;5052173;28;20502;-73
2021/03/24 00:27:51;;;;;;;0.05;0.00;;;30.40;51.60;;;;;;5049517;28;20047;-73
2021/03/24 00:30:23;;;;;;;0.95;0.15;;;30.70;47.80;;;;;;5050794;28;20045;-71
2021/03/24 00:32:51;;;;;;;0.68;0.13;;;31.00;49.10;;;;;;5053223;28;20372;-71
2021/03/24 00:35:19;;;;;;;1.42;0.73;;;31.20;49.30;;;;;;5054983;28;20040;-72
2021/03/24 00:37:47;;;;;;;0.05;0.05;;;31.40;48.40;;;;;;5050993;28;20028;-72
2021/03/24 00:40:18;;;;;;;0.65;0.10;;;31.70;46.30;;;;;;5051500;28;20154;-73
2021/03/24 00:42:46;;;;;;;0.13;0.03;;;31.70;45.90;;;;;;5058363;28;20552;-74
2021/03/24 00:45:15;;;;;;;0.28;0.10;;;31.60;47.00;;;;;;5050189;28;20051;-71
2021/03/24 00:47:43;;;;;;;0.98;0.40;;;31.40;44.10;;;;;;5049673;28;20116;-73
2021/03/24 00:50:13;;;;;;;0.50;0.10;;;31.20;48.00;;;;;;5051973;28;20933;-72
2021/03/24 00:52:41;;;;;;;0.85;0.10;;;31.30;44.40;;;;;;5051604;28;21333;-71
2021/03/24 00:55:09;;;;;;;1.55;0.10;;;31.40;45.40;;;;;;5050243;28;20133;-73
2021/03/24 00:57:36;;;;;;;0.28;0.10;;;31.10;48.40;;;;;;5052316;28;20025;-71
2021/03/24 01:00:11;;;;;;;0.65;0.10;;;31.20;44.30;;;;;;5048868;28;20055;-70
2021/03/24 01:02:38;;;;;;;0.20;0.00;;;30.80;46.90;;;;;;5049929;28;20407;-72
2021/03/24 01:05:11;;;;;;;0.10;0.00;;;30.90;48.10;;;;;;5053823;28;20036;-71
2021/03/24 01:07:40;;;;;;;0.38;0.10;;;30.90;48.80;;;;;;5048637;28;20040;-71
2021/03/24 01:10:10;;;;;;;0.08;0.00;;;30.80;47.70;;;;;;5051452;28;20047;-71
2021/03/24 01:12:37;;;;;;;0.75;0.00;;;31.20;47.60;;;;;;5051721;28;20059;-72
2021/03/24 01:15:06;;;;;;;0.90;0.00;;;31.60;46.20;;;;;;5049092;28;20094;-71
2021/03/24 01:17:34;;;;;;;1.70;0.03;;;31.60;45.60;;;;;;5050000;28;20033;-71
2021/03/24 01:20:01;;;;;;;0.10;0.10;;;31.10;47.50;;;;;;5053729;28;20477;-75
2021/03/24 01:22:28;;;;;;;0.65;0.10;;;31.50;49.50;;;;;;5051627;28;20115;-70
2021/03/24 01:24:58;;;;;;;0.00;0.00;;;32.10;45.10;;;;;;5048023;28;20029;-71
2021/03/24 01:27:27;;;;;;;0.82;0.10;;;32.20;44.60;;;;;;5049526;28;20089;-70
2021/03/24 01:29:54;;;;;;;0.52;0.08;;;32.00;44.70;;;;;;5053482;28;20540;-70
2021/03/24 01:32:22;;;;;;;0.60;0.00;;;32.10;44.80;;;;;;5049567;28;20036;-70
2021/03/24 01:34:50;;;;;;;0.00;0.00;;;31.50;43.90;;;;;;5049184;28;20025;-72
2021/03/24 01:37:18;;;;;;;0.50;0.08;;;31.50;42.80;;;;;;5049870;28;20758;-69
2021/03/24 01:39:45;;;;;;;0.73;0.03;;;31.60;42.50;;;;;;5049469;28;20048;-71
2021/03/24 01:42:13;;;;;;;0.10;0.10;;;31.20;41.40;;;;;;5054220;28;20127;-73
2021/03/24 01:45:06;;;;;;;0.20;0.10;;;31.40;45.80;;;;;;5052018;28;20025;-70
2021/03/24 01:47:34;;;;;;;0.00;0.00;;;31.70;46.10;;;;;;5034648;28;20471;-73
2021/03/24 01:50:02;;;;;;;0.43;0.10;;;32.10;41.60;;;;;;5052764;28;20029;-75
2021/03/24 01:52:29;;;;;;;0.10;0.10;;;32.40;40.30;;;;;;5047754;28;20018;-72
2021/03/24 01:54:57;;;;;;;1.27;0.05;;;32.10;41.50;;;;;;5052391;28;20605;-70
2021/03/24 01:57:27;;;;;;;0.03;0.03;;;32.30;40.50;;;;;;5050838;28;20138;-73
2021/03/24 01:59:56;;;;;;;0.20;0.10;;;32.40;40.20;;;;;;5052776;28;20079;-71
2021/03/24 02:02:36;;;;;;;2.45;0.10;;;32.20;40.10;;;;;;5047667;28;20128;-72
2021/03/24 02:05:06;;;;;;;0.88;0.17;;;32.10;39.00;;;;;;5048239;28;20131;-70
2021/03/24 02:07:54;;;;;;;1.30;0.10;;;32.00;40.40;;;;;;5047650;28;20040;-71
2021/03/24 02:10:34;;;;;;;0.20;0.10;;;31.50;42.20;;;;;;5048742;28;20387;-72
2021/03/24 02:13:10;;;;;;;0.43;0.10;;;32.00;42.30;;;;;;5049822;28;20012;-74
2021/03/24 02:15:45;;;;;;;1.17;0.10;;;32.40;41.00;;;;;;5051695;28;20044;-72
2021/03/24 02:18:14;;;;;;;0.63;0.20;;;32.70;39.40;;;;;;5049496;28;20131;-70
2021/03/24 02:20:56;;;;;;;0.30;0.25;;;32.70;37.60;;;;;;5052027;28;20051;-74
2021/03/24 02:23:41;;;;;;;0.20;0.05;;;32.30;39.20;;;;;;5052040;28;20036;-71
2021/03/24 02:26:29;;;;;;;0.10;0.10;;;31.70;42.90;;;;;;5049473;28;20095;-70
2021/03/24 02:29:01;;;;;;;0.10;0.10;;;32.00;39.10;;;;;;5050786;28;20056;-70
2021/03/24 02:31:30;;;;;;;0.25;0.10;;;32.60;40.50;;;;;;5052038;28;20505;-73
2021/03/24 02:34:01;;;;;;;0.10;0.10;;;32.60;38.20;;;;;;5053331;28;20047;-70
2021/03/24 02:36:29;;;;;;;0.20;0.10;;;32.50;41.00;;;;;;5049636;28;20052;-71
2021/03/24 02:38:59;;;;;;;0.43;0.10;;;32.50;39.00;;;;;;5050165;28;20114;-72
2021/03/24 02:41:28;;;;;;;0.30;0.05;;;33.00;38.30;;;;;;5057254;28;20040;-71
2021/03/24 02:43:56;;;;;;;1.73;0.20;;;32.80;36.40;;;;;;5051352;28;20115;-70
2021/03/24 02:46:25;;;;;;;1.17;0.20;;;32.60;37.70;;;;;;5046126;28;20021;-72
2021/03/24 02:48:53;;;;;;;1.48;0.20;;;32.30;37.70;;;;;;5053285;28;20360;-70
2021/03/24 02:51:26;;;;;;;0.60;0.20;;;32.30;38.00;;;;;;5047658;28;20376;-71
2021/03/24 02:53:54;;;;;;;0.20;0.15;;;32.60;38.30;;;;;;5049911;28;20098;-70
2021/03/24 02:56:22;;;;;;;14.23;0.43;;;32.60;38.00;;;;;;5050483;28;20029;-72
2021/03/24 02:58:52;;;;;;;0.88;0.20;;;32.80;39.80;;;;;;5049254;28;20478;-71
2021/03/24 03:01:26;;;;;;;0.10;0.10;;;32.60;37.10;;;;;;5048416;28;20399;-71
2021/03/24 03:04:06;;;;;;;0.38;0.10;;;32.60;39.30;;;;;;5036244;28;20036;-70
2021/03/24 03:06:33;;;;;;;0.98;0.10;;;32.30;38.20;;;;;;5057371;28;20090;-72
2021/03/24 03:09:12;;;;;;;0.57;0.10;;;32.60;36.70;;;;;;5053764;28;20029;-71
2021/03/24 03:12:01;;;;;;;0.13;0.13;;;32.90;37.40;;;;;;5046282;28;20553;-70
2021/03/24 03:14:53;;;;;;;2.67;0.20;;;33.30;39.10;;;;;;5051345;28;20127;-70
2021/03/24 03:17:27;;;;;;;0.10;0.10;;;33.90;41.00;;;;;;5046666;28;20028;-70
2021/03/24 03:19:58;;;;;;;1.13;0.20;;;34.30;38.20;;;;;;5052754;28;20066;-70
2021/03/24 03:22:32;;;;;;;0.13;0.03;;;34.30;41.80;;;;;;5048251;28;20037;-72
2021/03/24 03:25:16;;;;;;;0.43;0.10;;;33.20;36.30;;;;;;5047373;28;20135;-71
2021/03/24 03:27:45;;;;;;;0.10;0.10;;;32.10;39.40;;;;;;5051449;28;20062;-70
2021/03/24 03:30:17;;;;;;;0.43;0.10;;;31.30;40.90;;;;;;5056147;28;20050;-70
2021/03/24 03:32:48;;;;;;;0.40;0.20;;;30.80;43.60;;;;;;5051500;28;20323;-70
2021/03/24 03:35:21;;;;;;;0.30;0.20;;;30.40;41.50;;;;;;5052777;28;20348;-68
2021/03/24 03:37:52;;;;;;;0.20;0.20;;;30.90;44.60;;;;;;5050927;28;20104;-70
2021/03/24 03:40:23;;;;;;;0.20;0.20;;;31.90;43.10;;;;;;5052893;28;20063;-70
2021/03/24 03:42:52;;;;;;;0.30;0.10;;;31.80;41.00;;;;;;5052033;28;20040;-70
2021/03/24 03:45:21;;;;;;;0.45;0.10;;;31.10;40.10;;;;;;5053117;28;20072;-71
2021/03/24 03:47:49;;;;;;;1.05;0.10;;;30.40;42.00;;;;;;5051535;28;20529;-71
2021/03/24 03:50:24;;;;;;;0.13;0.10;;;30.10;43.30;;;;;;5053743;28;20033;-70
2021/03/24 03:53:17;;;;;;;0.65;0.10;;;30.70;42.80;;;;;;5054471;28;20029;-70
2021/03/24 03:55:47;;;;;;;0.50;0.45;;;31.10;41.10;;;;;;5056044;28;20037;-70
2021/03/24 03:58:25;;;;;;;0.70;0.20;;;31.50;39.20;;;;;;5052352;28;20043;-69
2021/03/24 04:01:19;;;;;;;0.30;0.20;;;31.60;39.70;;;;;;5048800;28;20383;-68
2021/03/24 04:03:58;;;;;;;0.60;0.20;;;32.20;39.40;;;;;;5050094;28;20039;-70
2021/03/24 04:06:33;;;;;;;0.75;0.10;;;31.80;40.00;;;;;;5031154;28;20040;-70
2021/03/24 04:09:00;;;;;;;;;;;31.70;38.80;;;;;;5057396;28;20720;-70
2021/03/24 04:11:34;;;;;;;0.85;0.17;;;31.40;39.10;;;;;;5051437;28;19916;-70
2021/03/24 04:14:06;;;;;;;0.55;0.13;;;31.50;41.30;;;;;;5054821;28;20024;-72
2021/03/24 04:16:33;;;;;;;0.57;0.20;;;31.30;40.80;;;;;;5052405;28;20107;-71
2021/03/24 04:19:04;;;;;;;0.20;0.10;;;31.70;40.60;;;;;;5052149;28;20207;-70
2021/03/24 04:21:34;;;;;;;0.88;0.10;;;31.40;39.00;;;;;;5052245;28;20021;-72
2021/03/24 04:24:05;;;;;;;1.08;0.15;;;31.60;38.10;;;;;;5058321;28;20200;-70
2021/03/24 04:26:43;;;;;;;0.52;0.38;;;31.30;37.90;;;;;;5053861;28;20021;-70
2021/03/24 04:29:18;;;;;;;0.40;0.20;;;31.30;39.50;;;;;;5055174;28;20040;-69
2021/03/24 04:31:54;;;;;;;0.13;0.13;;;31.40;38.00;;;;;;5053898;28;20453;-70
2021/03/24 04:34:23;;;;;;;0.77;0.28;;;31.70;38.70;;;;;;5052202;28;20586;-69
2021/03/24 04:37:06;;;;;;;0.35;0.20;;;32.00;38.70;;;;;;5050392;28;20552;-69
2021/03/24 04:39:36;;;;;;;0.57;0.13;;;32.30;38.20;;;;;;5051036;28;20390;-69
2021/03/24 04:42:15;;;;;;;0.10;0.05;;;32.30;37.60;;;;;;5053334;28;20116;-68
2021/03/24 04:44:45;;;;;;;0.50;0.25;;;31.70;37.60;;;;;;5050779;28;20118;-68
2021/03/24 04:47:23;;;;;;;0.20;0.10;;;31.20;38.60;;;;;;5028426;28;20025;-70
2021/03/24 04:50:01;;;;;;;0.95;0.20;;;31.20;39.40;;;;;;5057467;28;20092;-70
2021/03/24 04:52:30;;;;;;;0.35;0.10;;;31.30;40.50;;;;;;5050263;28;20028;-70
2021/03/24 04:55:03;;;;;;;1.75;0.60;;;31.10;39.10;;;;;;5054854;28;20035;-69
2021/03/24 04:57:30;;;;;;;1.38;0.20;;;31.10;41.50;;;;;;5051595;28;20070;-69
2021/03/24 05:00:05;;;;;;;0.40;0.20;;;31.60;39.00;;;;;;5050993;28;20040;-69
2021/03/24 05:02:34;;;;;;;0.17;0.10;;;31.70;38.60;;;;;;5031012;28;20569;-68
2021/03/24 05:05:27;;;;;;;0.20;0.13;;;31.10;40.70;;;;;;5053165;28;20032;-70
2021/03/24 05:08:20;;;;;;;0.38;0.20;;;31.30;40.80;;;;;;5057048;28;20024;-73
2021/03/24 05:10:50;;;;;;;0.50;0.20;;;31.00;41.30;;;;;;5051648;28;20041;-70
2021/03/24 05:13:33;;;;;;;0.10;0.10;;;31.40;40.90;;;;;;5052839;28;20089;-69
2021/03/24 05:16:34;;;;;;;0.20;0.20;;;31.30;38.80;;;;;;5054394;28;20036;-70
2021/03/24 05:19:02;;;;;;;0.52;0.20;;;31.20;39.10;;;;;;5021049;28;20056;-70
2021/03/24 05:21:48;;;;;;;0.30;0.10;;;31.40;40.70;;;;;;5053513;28;20021;-70
2021/03/24 05:24:18;;;;;;;2.83;0.20;;;30.80;39.30;;;;;;5057015;28;20036;-70
2021/03/24 05:27:15;;;;;;;0.40;0.20;;;30.60;39.90;;;;;;5054567;28;20779;-70
2021/03/24 05:29:56;;;;;;;0.35;0.30;;;30.20;41.30;;;;;;5052908;28;20099;-69
2021/03/24 05:32:45;;;;;;;1.92;0.43;;;30.30;41.30;;;;;;5050522;28;20079;-71
2021/03/24 05:35:24;;;;;;;0.17;0.10;;;30.50;41.00;;;;;;5057956;28;20028;-69
2021/03/24 05:37:54;;;;;;;0.30;0.10;;;30.80;42.80;;;;;;5034344;28;20039;-71
2021/03/24 05:40:52;;;;;;;0.60;0.20;;;30.90;40.60;;;;;;5050673;28;20028;-70
2021/03/24 05:43:43;;;;;;;0.30;0.30;;;31.00;40.60;;;;;;5052250;28;20394;-71
2021/03/24 05:46:25;;;;;;;1.30;0.28;;;31.00;39.90;;;;;;5056274;28;20027;-71
2021/03/24 05:48:55;;;;;;;0.93;0.30;;;30.90;40.40;;;;;;5053690;28;20032;-69
2021/03/24 05:51:38;;;;;;;0.20;0.20;;;30.90;40.10;;;;;;5051420;28;20024;-68
2021/03/24 05:54:27;;;;;;;0.20;0.20;;;30.90;38.50;;;;;;5051042;28;20043;-70
2021/03/24 05:57:00;;;;;;;0.40;0.28;;;30.60;39.50;;;;;;5051368;28;20078;-70
2021/03/24 05:59:56;;;;;;;1.88;0.20;;;30.50;40.80;;;;;;5051881;28;20053;-70
2021/03/24 06:03:04;;;;;;;0.43;0.10;;;30.40;39.20;;;;;;5018984;28;20126;-72
2021/03/24 06:05:50;;;;;;;1.75;0.10;;;30.10;40.20;;;;;;5019778;28;20033;-70
2021/03/24 06:08:38;;;;;;;1.75;0.20;;;30.10;40.10;;;;;;5052722;28;20475;-69
2021/03/24 06:11:41;;;;;;;0.75;0.20;;;30.00;40.00;;;;;;5053086;28;20112;-70
2021/03/24 06:14:37;;;;;;;0.65;0.10;;;30.00;40.70;;;;;;4957897;28;20039;-70
2021/03/24 06:17:26;;;;;;;1.50;0.22;;;29.90;41.60;;;;;;4975037;28;20165;-71
2021/03/24 06:20:20;;;;;;;2.95;0.20;;;30.00;41.40;;;;;;5052492;28;20024;-70
2021/03/24 06:23:31;;;;;;;1.05;0.25;;;30.10;42.40;;;;;;5050031;28;20048;-70
2021/03/24 06:26:08;;;;;;;0.75;0.20;;;29.90;42.00;;;;;;5049170;28;20124;-71
2021/03/24 06:28:38;;;;;;;2.95;1.00;;;29.90;42.60;;;;;;5048409;28;20114;-70
2021/03/24 06:31:11;;;;;;;0.95;0.50;;;29.90;42.20;;;;;;5054346;28;20033;-71
2021/03/24 06:34:19;;;;;;;1.75;0.38;;;29.70;42.00;;;;;;5051255;28;20025;-71
2021/03/24 06:36:50;;;;;;;2.25;0.30;;;29.50;41.80;;;;;;5018595;28;20044;-71
2021/03/24 06:39:37;;;;;;;1.02;0.40;;;29.40;43.40;;;;;;5058579;28;20017;-70
2021/03/24 06:42:10;;;;;;;1.75;0.10;;;29.30;43.00;;;;;;5045474;28;20552;-75
2021/03/24 06:44:52;;;;;;;3.70;0.22;;;29.20;42.80;;;;;;5032876;28;20125;-73
2021/03/24 06:47:58;;;;;;;1.35;0.32;;;29.10;42.30;;;;;;5049128;28;20460;-72
2021/03/24 06:50:43;;;;;;;0.65;0.20;;;29.00;43.10;;;;;;4976443;28;20054;-69
2021/03/24 06:53:36;;;;;;;1.17;0.20;;;28.90;43.70;;;;;;5042731;28;20174;-70
2021/03/24 06:56:24;;;;;;;0.55;0.30;;;28.90;44.40;;;;;;5049952;28;20119;-70
2021/03/24 06:59:22;;;;;;;1.58;0.50;;;28.90;45.20;;;;;;5052085;28;20037;-69
2021/03/24 07:02:22;;;;;;;1.45;0.38;;;28.80;44.00;;;;;;5031632;28;20127;-70
2021/03/24 07:05:08;;;;;;;1.15;0.50;;;28.60;44.80;;;;;;5035815;28;20029;-72
2021/03/24 07:08:01;;;;;;;2.50;0.43;;;28.60;45.30;;;;;;5051553;28;20138;-71
2021/03/24 07:10:43;;;;;;;1.13;0.25;;;28.50;45.30;;;;;;5048833;28;20029;-71
2021/03/24 07:13:31;;;;;;;1.23;1.00;;;28.50;45.70;;;;;;5051297;28;20020;-69
2021/03/24 07:16:05;;;;;;;8.13;5.97;;;28.40;45.30;;;;;;5051445;28;20041;-71
2021/03/24 07:18:35;;;;;;;3.65;2.40;;;28.30;45.90;;;;;;5052842;28;20514;-71
2021/03/24 07:21:37;;;;;;;2.28;1.70;;;28.20;46.50;;;;;;5059854;28;20059;-71
2021/03/24 07:24:08;;;;;;;3.03;1.80;;;28.00;47.50;;;;;;5016263;28;20048;-70
2021/03/24 07:26:44;;;;;;;1.85;1.25;;;27.90;48.50;;;;;;5051423;28;20025;-71
2021/03/24 07:29:45;;;;;;;2.35;1.50;;;27.70;49.50;;;;;;5044828;28;21418;-72
2021/03/24 07:32:30;;;;;;;1.25;0.85;;;27.60;50.20;;;;;;5080253;28;20032;-70
2021/03/24 07:35:10;;;;;;;0.90;0.63;;;27.40;51.10;;;;;;5079118;28;20410;-70
2021/03/24 07:38:02;;;;;;;2.00;0.85;;;27.30;51.20;;;;;;5070808;28;20043;-70
2021/03/24 07:41:05;;;;;;;1.00;0.50;;;27.20;49.20;;;;;;5075563;28;20028;-70
2021/03/24 07:43:57;;;;;;;1.95;1.05;;;27.00;50.30;;;;;;5073215;28;20040;-71
2021/03/24 07:46:40;;;;;;;0.98;0.50;;;26.90;51.80;;;;;;5069812;28;20016;-71
2021/03/24 07:49:28;;;;;;;1.42;0.30;;;26.70;52.60;;;;;;5071252;28;20024;-71
2021/03/24 07:52:32;;;;;;;2.55;0.60;;;26.70;51.40;;;;;;5072856;28;20108;-70
2021/03/24 07:55:17;;;;;;;1.65;0.40;;;26.60;50.80;;;;;;5070658;28;20045;-70
2021/03/24 07:58:08;;;;;;;0.50;0.30;;;26.60;51.70;;;;;;5069960;28;20031;-70
2021/03/24 08:00:54;;;;;;;2.30;0.60;;;26.50;50.90;;;;;;5072031;28;20020;-70
2021/03/24 08:03:59;;;;;;;0.60;0.32;;;26.40;50.80;;;;;;5072615;28;20474;-72
2021/03/24 08:06:50;;;;;;;2.03;0.32;;;26.30;50.90;;;;;;5015284;28;20050;-71
2021/03/24 08:09:58;;;;;;;0.73;0.40;;;26.30;50.60;;;;;;5069598;28;20083;-71
2021/03/24 08:12:35;;;;;;;2.08;0.43;;;26.20;50.60;;;;;;5042956;28;20033;-71
2021/03/24 08:15:21;;;;;;;0.80;0.35;;;26.10;50.90;;;;;;5070151;28;20043;-72
2021/03/24 08:18:15;;;;;;;2.10;0.60;;;26.10;51.40;;;;;;5072504;28;20028;-71
2021/03/24 08:20:49;;;;;;;2.33;0.35;;;25.90;52.00;;;;;;5069393;28;20111;-69
2021/03/24 08:23:26;;;;;;;0.95;0.43;;;25.90;52.00;;;;;;5073140;28;20036;-72
2021/03/24 08:26:05;;;;;;;0.75;0.50;;;25.80;51.90;;;;;;5070273;28;20024;-69
2021/03/24 08:28:38;;;;;;;0.90;0.30;;;25.80;52.30;;;;;;5071628;28;20363;-69
2021/03/24 08:31:26;;;;;;;2.70;0.70;;;25.70;52.70;;;;;;5056441;28;20057;-70
2021/03/24 08:34:31;;;;;;;1.98;1.33;;;25.60;53.00;;;;;;5039679;28;20463;-69
2021/03/24 08:37:01;;;;;;;1.00;0.60;;;25.50;53.60;;;;;;5011620;28;20040;-70
2021/03/24 08:39:47;;;;;;;1.38;0.65;;;25.40;54.30;;;;;;5057441;28;20025;-69
2021/03/24 08:42:41;;;;;;;2.38;0.50;;;25.30;54.00;;;;;;5058350;28;20079;-70
2021/03/24 08:45:38;;;;;;;1.42;0.52;;;25.20;54.70;;;;;;5059586;28;20103;-69
2021/03/24 08:48:19;;;;;;;2.17;0.65;;;25.20;54.90;;;;;;5049541;28;20063;-72
2021/03/24 08:50:59;;;;;;;1.60;0.40;;;25.10;55.50;;;;;;5056465;28;20077;-70
2021/03/24 08:53:46;;;;;;;1.35;0.60;;;25.10;55.20;;;;;;5058068;28;20037;-69
2021/03/24 08:56:25;;;;;;;0.88;0.47;;;25.00;55.20;;;;;;5066305;28;20483;-71
2021/03/24 08:59:15;;;;;;;1.13;0.65;;;25.00;54.90;;;;;;5052987;28;20036;-70
2021/03/24 09:02:08;;;;;;;1.85;0.80;;;25.00;54.80;;;;;;5048843;28;20474;-70
2021/03/24 09:05:20;;;;;;;3.25;1.05;;;24.90;54.00;;;;;;5049864;28;20032;-70
2021/03/24 09:08:10;;;;;;;3.33;0.93;;;24.90;54.90;;;;;;5033401;28;20513;-69
2021/03/24 09:10:55;;;;;;;0.50;0.50;;;24.80;55.00;;;;;;5054693;28;20129;-71
2021/03/24 09:13:36;;;;;;;1.40;0.60;;;24.70;55.60;;;;;;5047784;28;20036;-70
2021/03/24 09:16:25;;;;;;;1.27;0.50;;;24.60;55.80;;;;;;5052744;28;20089;-70
2021/03/24 09:18:55;;;;;;;2.80;0.70;;;24.50;56.10;;;;;;5056724;28;20033;-70
2021/03/24 09:21:31;;;;;;;3.17;1.17;;;24.40;56.20;;;;;;5047700;28;20025;-70
2021/03/24 09:24:54;;;;;;;2.45;0.70;;;24.40;56.60;;;;;;5055944;28;20356;-68
2021/03/24 09:27:32;;;;;;;2.00;0.60;;;24.30;56.60;;;;;;5024487;28;20067;-71
2021/03/24 09:30:11;;;;;;;0.88;0.40;;;24.30;56.60;;;;;;5054616;28;20041;-72
2021/03/24 09:32:50;;;;;;;2.55;0.70;;;24.20;56.30;;;;;;5055557;28;20106;-71
2021/03/24 09:35:27;;;;;;;2.72;0.93;;;24.20;56.80;;;;;;5052535;28;20140;-69
2021/03/24 09:38:17;;;;;;;2.22;0.77;;;24.10;56.50;;;;;;5058283;28;20114;-72
2021/03/24 09:40:50;;;;;;;1.75;1.02;;;24.10;56.50;;;;;;5054812;28;20078;-70
2021/03/24 09:43:30;;;;;;;2.25;0.70;;;24.00;57.10;;;;;;5058593;28;20428;-71
2021/03/24 09:46:09;;;;;;;2.30;0.50;;;23.90;57.20;;;;;;5052328;28;20033;-70
2021/03/24 09:49:11;;;;;;;1.02;0.82;;;23.90;57.30;;;;;;5057339;28;20755;-69
2021/03/24 09:51:50;;;;;;;5.63;1.17;;;23.80;57.90;;;;;;5022738;28;20041;-71
2021/03/24 09:54:26;;;;;;;0.70;0.40;;;23.80;58.10;;;;;;5053882;28;20033;-71
2021/03/24 09:57:12;;;;;;;1.88;0.65;;;23.70;58.60;;;;;;5053197;28;20025;-69
2021/03/24 09:59:45;;;;;;;1.50;1.00;;;23.60;59.00;;;;;;5053893;28;20029;-69
2021/03/24 10:02:29;;;;;;;0.93;0.60;;;23.50;59.90;;;;;;5051765;28;20075;-68
2021/03/24 10:05:06;;;;;;;2.35;0.70;;;23.40;60.20;;;;;;5057138;28;20028;-69
2021/03/24 10:07:39;;;;;;;2.25;0.60;;;23.30;60.60;;;;;;5052969;28;20021;-70
2021/03/24 10:10:25;;;;;;;2.25;0.73;;;23.20;61.10;;;;;;5055791;28;20381;-68
2021/03/24 10:13:02;;;;;;;2.40;0.80;;;23.10;60.80;;;;;;5051284;28;20024;-69
2021/03/24 10:15:35;;;;;;;2.33;0.50;;;23.10;60.80;;;;;;5055731;28;20059;-69
2021/03/24 10:18:25;;;;;;;3.42;0.70;;;23.20;59.70;;;;;;5056252;28;20029;-68
2021/03/24 10:21:21;;;;;;;2.72;0.63;;;23.30;58.80;;;;;;5052808;28;20140;-70
2021/03/24 10:24:00;;;;;;;0.65;0.50;;;23.30;58.10;;;;;;5055594;28;20036;-70
2021/03/24 10:26:53;;;;;;;1.33;0.70;;;23.40;57.90;;;;;;5056431;28;20053;-71
2021/03/24 10:29:38;;;;;;;2.47;0.80;;;23.50;58.00;;;;;;5053495;28;20053;-70
2021/03/24 10:32:19;;;;;;;2.05;0.70;;;23.40;57.70;;;;;;5057675;28;20418;-70
2021/03/24 10:34:49;;;;;;;2.35;0.70;;;23.30;57.90;;;;;;5057307;28;20484;-70
2021/03/24 10:37:37;;;;;;;0.50;0.50;;;23.30;58.90;;;;;;5056668;28;20029;-70
2021/03/24 10:40:26;;;;;;;1.50;0.65;;;23.20;58.40;;;;;;5035030;28;20120;-71
2021/03/24 10:42:58;;;;;;;1.45;0.68;;;23.20;58.30;;;;;;5052554;28;20061;-70
2021/03/24 10:45:49;;;;;;;4.07;0.90;;;23.10;58.50;;;;;;5053319;28;20025;-70
2021/03/24 10:48:26;;;;;;;3.08;0.60;;;23.00;58.40;;;;;;5047044;28;20071;-69
2021/03/24 10:51:14;;;;;;;2.08;0.65;;;23.00;58.50;;;;;;5054408;28;20320;-72
2021/03/24 10:53:41;;;;;;;0.80;0.60;;;22.90;58.40;;;;;;5052199;28;20534;-70
2021/03/24 10:56:27;;;;;;;1.17;0.70;;;22.90;58.90;;;;;;5054585;28;20028;-70
2021/03/24 10:59:24;;;;;;;1.60;1.00;;;22.80;58.60;;;;;;5051429;28;20048;-69
2021/03/24 11:02:32;;;;;;;1.85;0.57;;;22.80;58.60;;;;;;5056405;28;20025;-72
2021/03/24 11:05:12;;;;;;;1.45;0.68;;;22.70;58.70;;;;;;5002817;28;20120;-71
2021/03/24 11:07:50;;;;;;;0.82;0.55;;;22.50;59.40;;;;;;5048154;28;20029;-70
2021/03/24 11:10:36;;;;;;;1.40;0.60;;;22.40;59.60;;;;;;5051581;28;20040;-70
2021/03/24 11:13:11;;;;;;;2.35;0.70;;;22.40;60.20;;;;;;5056852;28;20056;-70
2021/03/24 11:16:07;;;;;;;1.90;0.60;;;22.40;60.30;;;;;;5049557;28;20116;-70
2021/03/24 11:18:57;;;;;;;5.57;1.35;;;22.30;61.10;;;;;;5049685;28;20354;-72
2021/03/24 11:21:40;;;;;;;1.10;0.68;;;22.30;60.10;;;;;;5053149;28;20039;-71
2021/03/24 11:24:48;;;;;;;2.97;0.75;;;22.30;59.50;;;;;;5031928;28;20384;-71
2021/03/24 11:27:26;;;;;;;3.83;0.60;;;22.20;59.30;;;;;;4952878;28;20107;-73
2021/03/24 11:30:14;;;;;;;2.97;0.75;;;22.10;59.60;;;;;;4980826;28;20074;-72
2021/03/24 11:32:51;;;;;;;1.60;0.60;;;22.00;60.70;;;;;;5047604;28;20067;-70
2021/03/24 11:35:30;;;;;;;2.30;0.80;;;22.00;59.50;;;;;;5075659;28;20024;-70
2021/03/24 11:38:14;;;;;;;2.63;0.80;;;21.90;60.20;;;;;;5068095;28;20037;-71
2021/03/24 11:41:33;;;;;;;1.08;0.65;;;21.90;58.40;;;;;;5074832;28;20016;-70
2021/03/24 11:44:11;;;;;;;1.30;0.40;;;21.90;58.30;;;;;;5071668;28;20040;-70
2021/03/24 11:46:42;;;;;;;1.38;0.55;;;22.00;56.80;;;;;;5072191;28;20043;-71
2021/03/24 11:49:39;;;;;;;2.47;0.73;;;22.10;57.70;;;;;;5074171;28;20025;-69
2021/03/24 11:52:25;;;;;;;0.93;0.60;;;22.10;58.10;;;;;;5074110;28;20028;-69
2021/03/24 11:55:16;;;;;;;1.58;1.27;;;21.90;59.20;;;;;;5085107;28;20489;-69
2021/03/24 11:58:23;;;;;;;1.80;0.88;;;21.80;60.10;;;;;;5072104;28;20025;-69
2021/03/24 12:01:04;;;;;;;;;;;21.70;61.10;;;;;;5081728;28;20024;-71
2021/03/24 12:04:12;;;;;;;2.33;0.77;;;21.60;62.20;;;;;;5075312;28;19932;-70
2021/03/24 12:06:59;;;;;;;1.38;0.82;;;21.50;62.60;;;;;;5004496;28;20354;-71
2021/03/24 12:09:33;;;;;;;2.08;0.80;;;21.50;62.30;;;;;;5072389;28;20528;-69
2021/03/24 12:12:27;;;;;;;1.05;0.85;;;21.40;62.50;;;;;;5078910;28;20528;-70
2021/03/24 12:15:25;;;;;;;1.83;1.10;;;21.40;62.60;;;;;;5070389;28;20124;-69
2021/03/24 12:18:03;;;;;;;1.83;0.88;;;21.40;61.90;;;;;;5071273;28;20028;-70
2021/03/24 12:20:31;;;;;;;1.85;0.70;;;21.50;62.50;;;;;;5075852;28;20125;-70
2021/03/24 12:22:59;;;;;;;2.50;0.98;;;21.50;63.00;;;;;;5072615;28;20394;-70
2021/03/24 12:25:33;;;;;;;1.98;0.80;;;21.50;62.50;;;;;;5077840;28;20096;-70
2021/03/24 12:28:05;;;;;;;1.52;0.80;;;21.30;62.50;;;;;;5073412;28;20069;-70
2021/03/24 12:30:40;;;;;;;3.53;0.73;;;21.20;63.60;;;;;;5064431;28;20368;-70
2021/03/24 12:33:21;;;;;;;1.80;0.80;;;21.10;64.60;;;;;;5049925;28;20041;-70
2021/03/24 12:36:08;;;;;;;0.73;0.73;;;21.00;64.70;;;;;;5064457;28;20028;-72
2021/03/24 12:39:01;;;;;;;1.48;0.75;;;21.00;64.20;;;;;;5055748;28;20118;-69
2021/03/24 12:41:38;;;;;;;2.85;0.70;;;21.00;65.00;;;;;;5047657;28;20518;-71
2021/03/24 12:44:29;;;;;;;1.13;0.50;;;21.00;65.20;;;;;;5055763;28;20029;-69
2021/03/24 12:47:02;;;;;;;3.90;0.82;;;20.80;66.00;;;;;;5061786;28;20371;-71
2021/03/24 12:49:38;;;;;;;2.25;0.90;;;20.70;66.50;;;;;;5052037;28;20082;-68
2021/03/24 12:52:24;;;;;;;1.90;1.25;;;20.70;66.80;;;;;;5056687;28;20029;-70
2021/03/24 12:54:51;;;;;;;1.38;1.05;;;20.50;68.40;;;;;;5063721;28;20032;-71
2021/03/24 12:57:38;;;;;;;1.73;0.70;;;20.40;69.90;;;;;;5058021;28;20079;-68
2021/03/24 13:00:27;;;;;;;1.90;0.90;;;20.30;69.20;;;;;;5053180;28;20037;-69
2021/03/24 13:03:17;;;;;;;1.50;1.00;;;20.30;69.70;;;;;;5053515;28;20068;-73
2021/03/24 13:06:05;;;;;;;1.13;0.75;;;20.20;71.70;;;;;;5050168;28;20044;-70
2021/03/24 13:08:50;;;;;;;2.10;0.80;;;20.10;71.90;;;;;;5000696;28;20036;-74
2021/03/24 13:12:05;;;;;;;1.25;0.90;;;20.00;72.50;;;;;;5057461;28;20029;-70
2021/03/24 13:14:51;;;;;;;1.98;0.98;;;19.90;71.20;;;;;;5010944;28;20041;-71
2021/03/24 13:17:34;;;;;;;1.45;0.93;;;19.80;72.20;;;;;;5054490;28;20078;-69
2021/03/24 13:20:17;;;;;;;1.40;0.73;;;19.80;73.40;;;;;;5058396;28;20032;-68
2021/03/24 13:23:05;;;;;;;3.80;0.80;;;19.60;74.50;;;;;;5050785;28;20116;-70
2021/03/24 13:25:39;;;;;;;2.08;0.90;;;19.50;76.20;;;;;;5053822;28;20021;-73
2021/03/24 13:28:09;;;;;;;3.28;1.23;;;19.40;75.70;;;;;;5058502;28;20471;-71
2021/03/24 13:30:59;;;;;;;1.30;0.80;;;19.40;75.10;;;;;;5054322;28;20080;-72
2021/03/24 13:33:49;;;;;;;0.60;0.55;;;19.50;74.10;;;;;;5054808;28;20025;-72
2021/03/24 13:36:38;;;;;;;1.35;0.88;;;19.60;73.30;;;;;;5065356;28;20032;-70
2021/03/24 13:39:40;;;;;;;1.80;0.88;;;19.80;72.50;;;;;;5057936;28;20089;-71
2021/03/24 13:42:32;;;;;;;2.00;0.93;;;19.80;72.10;;;;;;5053996;28;20110;-69
2021/03/24 13:45:03;;;;;;;1.27;1.02;;;19.80;72.70;;;;;;5058390;28;20025;-71
2021/03/24 13:47:41;;;;;;;1.45;0.98;;;19.70;73.60;;;;;;5062960;28;20414;-71
2021/03/24 13:50:37;;;;;;;0.93;0.82;;;19.60;74.90;;;;;;5057291;28;20359;-70
2021/03/24 13:53:06;;;;;;;;;;;19.50;75.40;;;;;;5062466;28;20488;-71
2021/03/24 13:56:19;;;;;;;2.20;0.90;;;19.40;75.20;;;;;;5055696;28;19904;-72